sensor_id;sensor_type;location;lat;lon;timestamp;P1;durP1;ratioP1;P2;durP2;ratioP2
48941;SDS011;35340;52.378;4.648;2022-09-09T00:04:38;2.90;;;1.42;;
48941;SDS011;35340;52.378;4.648;2022-09-09T00:15:19;2.75;;;1.30;;
48941;SDS011;35340;52.378;4.648;2022-09-09T00:17:51;4.28;;;1.70;;
48941;SDS011;35340;52.378;4.648;2022-09-09T00:20:24;5.72;;;1.15;;
48941;SDS011;35340;52.378;4.648;2022-09-09T00:23:12;3.58;;;1.40;;
48941;SDS011;35340;52.378;4.648;2022-09-09T00:28:23;3.05;;;1.23;;
48941;SDS011;35340;52.378;4.648;2022-09-09T00:30:51;2.20;;;1.20;;
48941;SDS011;35340;52.378;4.648;2022-09-09T00:33:19;4.55;;;1.30;;
48941;SDS011;35340;52.378;4.648;2022-09-09T00:35:48;5.60;;;1.38;;
48941;SDS011;35340;52.378;4.648;2022-09-09T00:38:23;3.40;;;1.58;;
48941;SDS011;35340;52.378;4.648;2022-09-09T00:43:29;3.25;;;1.33;;
48941;SDS011;35340;52.378;4.648;2022-09-09T00:54:12;3.35;;;1.30;;
48941;SDS011;35340;52.378;4.648;2022-09-09T00:56:53;3.67;;;1.50;;
48941;SDS011;35340;52.378;4.648;2022-09-09T00:59:24;3.53;;;1.30;;
48941;SDS011;35340;52.378;4.648;2022-09-09T01:02:13;2.80;;;1.33;;
48941;SDS011;35340;52.378;4.648;2022-09-09T01:04:38;3.30;;;1.20;;
48941;SDS011;35340;52.378;4.648;2022-09-09T01:07:17;4.25;;;1.45;;
48941;SDS011;35340;52.378;4.648;2022-09-09T01:12:28;3.60;;;1.38;;
48941;SDS011;35340;52.378;4.648;2022-09-09T01:15:07;3.08;;;1.40;;
48941;SDS011;35340;52.378;4.648;2022-09-09T01:17:58;3.33;;;1.17;;
48941;SDS011;35340;52.378;4.648;2022-09-09T01:20:37;3.55;;;1.45;;
48941;SDS011;35340;52.378;4.648;2022-09-09T01:23:16;2.92;;;1.27;;
48941;SDS011;35340;52.378;4.648;2022-09-09T01:28:29;2.97;;;1.60;;
48941;SDS011;35340;52.378;4.648;2022-09-09T01:30:56;3.35;;;1.40;;
48941;SDS011;35340;52.378;4.648;2022-09-09T01:33:23;3.20;;;1.33;;
48941;SDS011;35340;52.378;4.648;2022-09-09T01:38:28;3.88;;;1.42;;
48941;SDS011;35340;52.378;4.648;2022-09-09T01:40:55;2.80;;;1.63;;
48941;SDS011;35340;52.378;4.648;2022-09-09T01:43:23;3.10;;;1.60;;
48941;SDS011;35340;52.378;4.648;2022-09-09T01:45:52;2.58;;;1.42;;
48941;SDS011;35340;52.378;4.648;2022-09-09T01:48:21;3.17;;;1.67;;
48941;SDS011;35340;52.378;4.648;2022-09-09T01:50:48;3.13;;;1.60;;
48941;SDS011;35340;52.378;4.648;2022-09-09T01:53:16;3.35;;;1.50;;
48941;SDS011;35340;52.378;4.648;2022-09-09T01:55:52;5.03;;;1.40;;
48941;SDS011;35340;52.378;4.648;2022-09-09T01:58:36;2.80;;;1.30;;
48941;SDS011;35340;52.378;4.648;2022-09-09T02:03:38;5.18;;;1.90;;
48941;SDS011;35340;52.378;4.648;2022-09-09T02:06:14;5.13;;;1.90;;
48941;SDS011;35340;52.378;4.648;2022-09-09T02:08:52;5.13;;;1.85;;
48941;SDS011;35340;52.378;4.648;2022-09-09T02:11:24;3.88;;;1.90;;
48941;SDS011;35340;52.378;4.648;2022-09-09T02:13:52;2.25;;;1.30;;
48941;SDS011;35340;52.378;4.648;2022-09-09T02:16:33;5.05;;;1.90;;
48941;SDS011;35340;52.378;4.648;2022-09-09T02:19:14;4.70;;;1.50;;
48941;SDS011;35340;52.378;4.648;2022-09-09T02:21:38;3.33;;;1.60;;
48941;SDS011;35340;52.378;4.648;2022-09-09T02:24:07;4.03;;;1.58;;
48941;SDS011;35340;52.378;4.648;2022-09-09T02:26:35;3.38;;;1.80;;
48941;SDS011;35340;52.378;4.648;2022-09-09T02:31:39;4.05;;;1.95;;
48941;SDS011;35340;52.378;4.648;2022-09-09T02:34:09;6.10;;;1.85;;
48941;SDS011;35340;52.378;4.648;2022-09-09T02:36:36;3.45;;;1.50;;
48941;SDS011;35340;52.378;4.648;2022-09-09T02:39:04;3.38;;;1.80;;
48941;SDS011;35340;52.378;4.648;2022-09-09T02:41:33;8.98;;;1.80;;
48941;SDS011;35340;52.378;4.648;2022-09-09T02:44:01;4.20;;;1.75;;
48941;SDS011;35340;52.378;4.648;2022-09-09T02:55:23;4.85;;;1.90;;
48941;SDS011;35340;52.378;4.648;2022-09-09T02:57:57;4.18;;;2.20;;
48941;SDS011;35340;52.378;4.648;2022-09-09T03:00:27;3.80;;;1.80;;
48941;SDS011;35340;52.378;4.648;2022-09-09T03:02:53;4.07;;;1.77;;
48941;SDS011;35340;52.378;4.648;2022-09-09T03:05:19;3.95;;;1.83;;
48941;SDS011;35340;52.378;4.648;2022-09-09T03:07:46;4.32;;;2.00;;
48941;SDS011;35340;52.378;4.648;2022-09-09T03:10:11;4.07;;;1.95;;
48941;SDS011;35340;52.378;4.648;2022-09-09T03:12:37;3.55;;;1.80;;
48941;SDS011;35340;52.378;4.648;2022-09-09T03:15:03;3.55;;;1.90;;
48941;SDS011;35340;52.378;4.648;2022-09-09T03:17:29;5.43;;;2.40;;
48941;SDS011;35340;52.378;4.648;2022-09-09T03:19:54;5.15;;;1.67;;
48941;SDS011;35340;52.378;4.648;2022-09-09T03:22:20;4.28;;;1.90;;
48941;SDS011;35340;52.378;4.648;2022-09-09T03:24:46;3.25;;;1.58;;
48941;SDS011;35340;52.378;4.648;2022-09-09T03:27:12;3.50;;;1.60;;
48941;SDS011;35340;52.378;4.648;2022-09-09T03:29:38;3.50;;;1.60;;
48941;SDS011;35340;52.378;4.648;2022-09-09T03:32:04;7.00;;;1.80;;
48941;SDS011;35340;52.378;4.648;2022-09-09T03:34:29;3.60;;;1.85;;
48941;SDS011;35340;52.378;4.648;2022-09-09T03:36:54;3.50;;;1.73;;
48941;SDS011;35340;52.378;4.648;2022-09-09T03:39:20;3.38;;;1.40;;
48941;SDS011;35340;52.378;4.648;2022-09-09T03:41:45;6.00;;;1.70;;
48941;SDS011;35340;52.378;4.648;2022-09-09T03:44:13;3.80;;;1.60;;
48941;SDS011;35340;52.378;4.648;2022-09-09T03:46:38;6.22;;;1.70;;
48941;SDS011;35340;52.378;4.648;2022-09-09T03:49:04;4.15;;;1.98;;
48941;SDS011;35340;52.378;4.648;2022-09-09T03:51:30;2.38;;;1.10;;
48941;SDS011;35340;52.378;4.648;2022-09-09T03:54:04;3.80;;;1.40;;
48941;SDS011;35340;52.378;4.648;2022-09-09T03:56:33;3.83;;;1.65;;
48941;SDS011;35340;52.378;4.648;2022-09-09T03:58:59;2.95;;;1.40;;
48941;SDS011;35340;52.378;4.648;2022-09-09T04:01:24;3.83;;;1.77;;
48941;SDS011;35340;52.378;4.648;2022-09-09T04:03:50;3.63;;;1.75;;
48941;SDS011;35340;52.378;4.648;2022-09-09T04:06:15;3.30;;;1.50;;
48941;SDS011;35340;52.378;4.648;2022-09-09T04:08:42;3.55;;;1.50;;
48941;SDS011;35340;52.378;4.648;2022-09-09T04:13:40;2.90;;;1.42;;
48941;SDS011;35340;52.378;4.648;2022-09-09T04:16:07;4.28;;;1.70;;
48941;SDS011;35340;52.378;4.648;2022-09-09T04:18:35;3.72;;;1.60;;
48941;SDS011;35340;52.378;4.648;2022-09-09T04:21:01;4.50;;;1.55;;
48941;SDS011;35340;52.378;4.648;2022-09-09T04:23:27;3.55;;;1.50;;
48941;SDS011;35340;52.378;4.648;2022-09-09T04:25:56;1.98;;;1.20;;
48941;SDS011;35340;52.378;4.648;2022-09-09T04:28:24;3.17;;;1.65;;
48941;SDS011;35340;52.378;4.648;2022-09-09T04:30:51;3.92;;;1.60;;
48941;SDS011;35340;52.378;4.648;2022-09-09T04:33:17;3.05;;;1.63;;
48941;SDS011;35340;52.378;4.648;2022-09-09T04:35:47;4.63;;;1.83;;
48941;SDS011;35340;52.378;4.648;2022-09-09T04:38:13;3.05;;;1.50;;
48941;SDS011;35340;52.378;4.648;2022-09-09T04:40:38;3.07;;;1.63;;
48941;SDS011;35340;52.378;4.648;2022-09-09T04:43:07;2.80;;;1.33;;
48941;SDS011;35340;52.378;4.648;2022-09-09T04:45:33;3.25;;;1.67;;
48941;SDS011;35340;52.378;4.648;2022-09-09T04:47:59;4.82;;;1.83;;
48941;SDS011;35340;52.378;4.648;2022-09-09T04:50:24;4.78;;;1.40;;
48941;SDS011;35340;52.378;4.648;2022-09-09T04:52:50;3.97;;;1.10;;
48941;SDS011;35340;52.378;4.648;2022-09-09T04:55:16;1.98;;;0.88;;
48941;SDS011;35340;52.378;4.648;2022-09-09T04:57:47;1.88;;;1.00;;
48941;SDS011;35340;52.378;4.648;2022-09-09T05:00:13;1.35;;;0.75;;
48941;SDS011;35340;52.378;4.648;2022-09-09T05:02:39;2.30;;;0.98;;
48941;SDS011;35340;52.378;4.648;2022-09-09T05:05:07;3.83;;;1.05;;
48941;SDS011;35340;52.378;4.648;2022-09-09T05:07:32;2.92;;;0.70;;
48941;SDS011;35340;52.378;4.648;2022-09-09T05:09:58;1.98;;;0.82;;
48941;SDS011;35340;52.378;4.648;2022-09-09T05:12:25;1.45;;;0.80;;
48941;SDS011;35340;52.378;4.648;2022-09-09T05:14:51;4.03;;;0.88;;
48941;SDS011;35340;52.378;4.648;2022-09-09T05:17:17;1.58;;;0.68;;
48941;SDS011;35340;52.378;4.648;2022-09-09T05:19:42;1.60;;;0.75;;
48941;SDS011;35340;52.378;4.648;2022-09-09T05:22:09;2.33;;;0.70;;
48941;SDS011;35340;52.378;4.648;2022-09-09T05:24:36;2.38;;;0.80;;
48941;SDS011;35340;52.378;4.648;2022-09-09T05:27:03;2.08;;;0.90;;
48941;SDS011;35340;52.378;4.648;2022-09-09T05:29:30;1.95;;;0.70;;
48941;SDS011;35340;52.378;4.648;2022-09-09T05:31:58;2.13;;;0.90;;
48941;SDS011;35340;52.378;4.648;2022-09-09T05:34:24;2.78;;;0.82;;
48941;SDS011;35340;52.378;4.648;2022-09-09T05:36:49;1.40;;;0.75;;
48941;SDS011;35340;52.378;4.648;2022-09-09T05:39:16;2.15;;;0.90;;
48941;SDS011;35340;52.378;4.648;2022-09-09T05:41:41;2.10;;;0.80;;
48941;SDS011;35340;52.378;4.648;2022-09-09T05:44:07;2.13;;;0.90;;
48941;SDS011;35340;52.378;4.648;2022-09-09T05:46:32;2.95;;;0.98;;
48941;SDS011;35340;52.378;4.648;2022-09-09T05:48:58;2.88;;;1.08;;
48941;SDS011;35340;52.378;4.648;2022-09-09T05:51:24;5.70;;;1.20;;
48941;SDS011;35340;52.378;4.648;2022-09-09T05:53:55;4.97;;;1.52;;
48941;SDS011;35340;52.378;4.648;2022-09-09T05:56:24;4.45;;;1.73;;
48941;SDS011;35340;52.378;4.648;2022-09-09T05:58:51;4.18;;;1.58;;
48941;SDS011;35340;52.378;4.648;2022-09-09T06:01:25;6.82;;;1.67;;
48941;SDS011;35340;52.378;4.648;2022-09-09T06:03:52;7.43;;;3.22;;
48941;SDS011;35340;52.378;4.648;2022-09-09T06:08:43;12.50;;;2.92;;
48941;SDS011;35340;52.378;4.648;2022-09-09T06:13:39;7.25;;;2.50;;
48941;SDS011;35340;52.378;4.648;2022-09-09T06:16:06;10.45;;;2.40;;
48941;SDS011;35340;52.378;4.648;2022-09-09T06:18:34;6.90;;;2.40;;
48941;SDS011;35340;52.378;4.648;2022-09-09T06:21:00;6.45;;;2.15;;
48941;SDS011;35340;52.378;4.648;2022-09-09T06:23:28;9.73;;;2.20;;
48941;SDS011;35340;52.378;4.648;2022-09-09T06:26:04;7.43;;;1.80;;
48941;SDS011;35340;52.378;4.648;2022-09-09T06:28:35;8.68;;;2.08;;
48941;SDS011;35340;52.378;4.648;2022-09-09T06:31:02;7.90;;;2.10;;
48941;SDS011;35340;52.378;4.648;2022-09-09T06:33:33;10.70;;;2.15;;
48941;SDS011;35340;52.378;4.648;2022-09-09T06:36:01;7.72;;;2.00;;
48941;SDS011;35340;52.378;4.648;2022-09-09T06:38:28;7.32;;;2.17;;
48941;SDS011;35340;52.378;4.648;2022-09-09T06:40:54;6.40;;;1.88;;
48941;SDS011;35340;52.378;4.648;2022-09-09T06:43:24;4.32;;;1.63;;
48941;SDS011;35340;52.378;4.648;2022-09-09T06:46:01;6.95;;;2.00;;
48941;SDS011;35340;52.378;4.648;2022-09-09T06:48:28;6.88;;;2.15;;
48941;SDS011;35340;52.378;4.648;2022-09-09T06:51:00;8.82;;;2.13;;
48941;SDS011;35340;52.378;4.648;2022-09-09T06:53:27;5.68;;;1.98;;
48941;SDS011;35340;52.378;4.648;2022-09-09T06:55:53;7.05;;;1.90;;
48941;SDS011;35340;52.378;4.648;2022-09-09T06:58:19;9.75;;;2.50;;
48941;SDS011;35340;52.378;4.648;2022-09-09T07:00:52;7.15;;;2.35;;
48941;SDS011;35340;52.378;4.648;2022-09-09T07:03:41;7.45;;;2.13;;
48941;SDS011;35340;52.378;4.648;2022-09-09T07:06:13;9.30;;;2.28;;
48941;SDS011;35340;52.378;4.648;2022-09-09T07:08:39;7.78;;;2.25;;
48941;SDS011;35340;52.378;4.648;2022-09-09T07:11:05;8.60;;;1.90;;
48941;SDS011;35340;52.378;4.648;2022-09-09T07:13:33;6.22;;;2.08;;
48941;SDS011;35340;52.378;4.648;2022-09-09T07:16:03;6.63;;;1.92;;
48941;SDS011;35340;52.378;4.648;2022-09-09T07:18:30;11.80;;;2.70;;
48941;SDS011;35340;52.378;4.648;2022-09-09T07:20:56;8.25;;;2.10;;
48941;SDS011;35340;52.378;4.648;2022-09-09T07:23:22;7.97;;;2.28;;
48941;SDS011;35340;52.378;4.648;2022-09-09T07:25:48;8.23;;;1.90;;
48941;SDS011;35340;52.378;4.648;2022-09-09T07:28:13;6.53;;;2.00;;
48941;SDS011;35340;52.378;4.648;2022-09-09T07:30:38;9.27;;;2.28;;
48941;SDS011;35340;52.378;4.648;2022-09-09T07:33:05;7.72;;;2.08;;
48941;SDS011;35340;52.378;4.648;2022-09-09T08:09:04;8.88;;;2.40;;
48941;SDS011;35340;52.378;4.648;2022-09-09T09:28:41;6.15;;;2.15;;
48941;SDS011;35340;52.378;4.648;2022-09-09T11:04:35;8.40;;;2.10;;
48941;SDS011;35340;52.378;4.648;2022-09-09T11:12:18;10.40;;;2.10;;
48941;SDS011;35340;52.378;4.648;2022-09-09T15:32:55;5.15;;;1.42;;
48941;SDS011;35340;52.378;4.648;2022-09-09T15:35:23;4.68;;;1.30;;
48941;SDS011;35340;52.378;4.648;2022-09-09T15:50:45;4.28;;;1.23;;
48941;SDS011;35340;52.378;4.648;2022-09-09T15:53:10;2.70;;;1.20;;
48941;SDS011;35340;52.378;4.648;2022-09-09T15:55:36;4.07;;;1.40;;
48941;SDS011;35340;52.378;4.648;2022-09-09T15:58:01;3.83;;;1.13;;
48941;SDS011;35340;52.378;4.648;2022-09-09T16:00:27;2.97;;;1.27;;
48941;SDS011;35340;52.378;4.648;2022-09-09T16:02:54;3.58;;;1.40;;
48941;SDS011;35340;52.378;4.648;2022-09-09T16:05:19;4.03;;;1.20;;
48941;SDS011;35340;52.378;4.648;2022-09-09T16:07:45;2.47;;;1.20;;
48941;SDS011;35340;52.378;4.648;2022-09-09T16:10:12;3.17;;;1.20;;
48941;SDS011;35340;52.378;4.648;2022-09-09T16:12:38;3.78;;;1.35;;
48941;SDS011;35340;52.378;4.648;2022-09-09T16:15:04;2.75;;;1.02;;
48941;SDS011;35340;52.378;4.648;2022-09-09T16:17:30;5.93;;;1.30;;
48941;SDS011;35340;52.378;4.648;2022-09-09T16:20:02;4.72;;;1.17;;
48941;SDS011;35340;52.378;4.648;2022-09-09T16:22:28;3.17;;;1.05;;
48941;SDS011;35340;52.378;4.648;2022-09-09T16:24:53;2.88;;;1.17;;
48941;SDS011;35340;52.378;4.648;2022-09-09T16:27:19;2.78;;;1.10;;
48941;SDS011;35340;52.378;4.648;2022-09-09T16:29:44;3.05;;;1.35;;
48941;SDS011;35340;52.378;4.648;2022-09-09T16:32:10;3.05;;;1.23;;
48941;SDS011;35340;52.378;4.648;2022-09-09T16:34:36;3.70;;;1.30;;
48941;SDS011;35340;52.378;4.648;2022-09-09T16:37:02;2.85;;;1.10;;
48941;SDS011;35340;52.378;4.648;2022-09-09T16:39:27;3.05;;;1.30;;
48941;SDS011;35340;52.378;4.648;2022-09-09T16:41:53;2.30;;;1.10;;
48941;SDS011;35340;52.378;4.648;2022-09-09T16:44:19;3.20;;;1.50;;
48941;SDS011;35340;52.378;4.648;2022-09-09T16:46:45;5.78;;;1.55;;
48941;SDS011;35340;52.378;4.648;2022-09-09T16:49:13;3.70;;;1.30;;
48941;SDS011;35340;52.378;4.648;2022-09-09T16:51:40;3.03;;;1.30;;
48941;SDS011;35340;52.378;4.648;2022-09-09T16:54:08;4.32;;;1.30;;
48941;SDS011;35340;52.378;4.648;2022-09-09T16:56:35;3.08;;;1.35;;
48941;SDS011;35340;52.378;4.648;2022-09-09T16:59:04;3.50;;;1.38;;
48941;SDS011;35340;52.378;4.648;2022-09-09T17:01:35;3.10;;;1.50;;
48941;SDS011;35340;52.378;4.648;2022-09-09T17:04:10;3.47;;;1.50;;
48941;SDS011;35340;52.378;4.648;2022-09-09T17:06:39;4.47;;;1.60;;
48941;SDS011;35340;52.378;4.648;2022-09-09T17:09:07;4.72;;;1.63;;
48941;SDS011;35340;52.378;4.648;2022-09-09T17:11:35;5.38;;;1.75;;
48941;SDS011;35340;52.378;4.648;2022-09-09T17:14:02;5.78;;;1.65;;
48941;SDS011;35340;52.378;4.648;2022-09-09T17:16:29;3.67;;;1.50;;
48941;SDS011;35340;52.378;4.648;2022-09-09T17:18:56;3.38;;;1.70;;
48941;SDS011;35340;52.378;4.648;2022-09-09T17:21:24;3.35;;;1.45;;
48941;SDS011;35340;52.378;4.648;2022-09-09T17:23:51;4.05;;;1.67;;
48941;SDS011;35340;52.378;4.648;2022-09-09T17:26:21;3.55;;;1.38;;
48941;SDS011;35340;52.378;4.648;2022-09-09T17:28:48;5.13;;;1.88;;
48941;SDS011;35340;52.378;4.648;2022-09-09T17:31:15;5.32;;;1.70;;
48941;SDS011;35340;52.378;4.648;2022-09-09T17:33:46;4.17;;;1.60;;
48941;SDS011;35340;52.378;4.648;2022-09-09T17:38:39;4.28;;;1.70;;
48941;SDS011;35340;52.378;4.648;2022-09-09T17:41:06;3.85;;;1.63;;
48941;SDS011;35340;52.378;4.648;2022-09-09T17:43:34;4.57;;;1.67;;
48941;SDS011;35340;52.378;4.648;2022-09-09T17:48:35;6.13;;;1.70;;
48941;SDS011;35340;52.378;4.648;2022-09-09T17:51:02;5.25;;;1.70;;
48941;SDS011;35340;52.378;4.648;2022-09-09T17:53:38;4.72;;;1.70;;
48941;SDS011;35340;52.378;4.648;2022-09-09T17:56:05;9.07;;;1.80;;
48941;SDS011;35340;52.378;4.648;2022-09-09T17:58:33;4.40;;;1.80;;
48941;SDS011;35340;52.378;4.648;2022-09-09T18:01:08;7.45;;;1.95;;
48941;SDS011;35340;52.378;4.648;2022-09-09T18:03:36;6.10;;;2.38;;
48941;SDS011;35340;52.378;4.648;2022-09-09T18:06:04;6.97;;;2.22;;
48941;SDS011;35340;52.378;4.648;2022-09-09T18:08:32;8.20;;;2.33;;
48941;SDS011;35340;52.378;4.648;2022-09-09T18:10:59;5.82;;;2.58;;
48941;SDS011;35340;52.378;4.648;2022-09-09T18:13:25;7.95;;;2.40;;
48941;SDS011;35340;52.378;4.648;2022-09-09T18:15:51;6.07;;;2.50;;
48941;SDS011;35340;52.378;4.648;2022-09-09T18:18:16;5.20;;;2.25;;
48941;SDS011;35340;52.378;4.648;2022-09-09T18:20:42;6.25;;;2.33;;
48941;SDS011;35340;52.378;4.648;2022-09-09T18:23:08;9.05;;;2.70;;
48941;SDS011;35340;52.378;4.648;2022-09-09T18:25:38;6.10;;;2.20;;
48941;SDS011;35340;52.378;4.648;2022-09-09T18:28:04;7.35;;;2.50;;
48941;SDS011;35340;52.378;4.648;2022-09-09T18:30:29;5.10;;;2.25;;
48941;SDS011;35340;52.378;4.648;2022-09-09T18:32:55;5.68;;;2.50;;
48941;SDS011;35340;52.378;4.648;2022-09-09T18:35:27;5.55;;;2.30;;
48941;SDS011;35340;52.378;4.648;2022-09-09T18:37:53;8.75;;;2.38;;
48941;SDS011;35340;52.378;4.648;2022-09-09T18:40:20;6.10;;;2.40;;
48941;SDS011;35340;52.378;4.648;2022-09-09T18:42:46;8.32;;;2.60;;
48941;SDS011;35340;52.378;4.648;2022-09-09T18:45:11;6.65;;;2.08;;
48941;SDS011;35340;52.378;4.648;2022-09-09T18:47:36;4.78;;;2.10;;
48941;SDS011;35340;52.378;4.648;2022-09-09T18:50:08;6.55;;;2.35;;
48941;SDS011;35340;52.378;4.648;2022-09-09T18:52:35;7.75;;;2.78;;
48941;SDS011;35340;52.378;4.648;2022-09-09T18:55:00;5.43;;;2.22;;
48941;SDS011;35340;52.378;4.648;2022-09-09T18:57:25;6.75;;;2.67;;
48941;SDS011;35340;52.378;4.648;2022-09-09T18:59:52;9.30;;;2.90;;
48941;SDS011;35340;52.378;4.648;2022-09-09T19:02:19;6.07;;;2.40;;
48941;SDS011;35340;52.378;4.648;2022-09-09T19:04:45;6.45;;;2.40;;
48941;SDS011;35340;52.378;4.648;2022-09-09T19:07:11;6.57;;;2.60;;
48941;SDS011;35340;52.378;4.648;2022-09-09T19:09:36;7.72;;;3.08;;
48941;SDS011;35340;52.378;4.648;2022-09-09T19:12:02;10.40;;;2.80;;
48941;SDS011;35340;52.378;4.648;2022-09-09T19:14:28;8.77;;;2.97;;
48941;SDS011;35340;52.378;4.648;2022-09-09T19:16:54;5.93;;;2.65;;
48941;SDS011;35340;52.378;4.648;2022-09-09T19:19:21;5.45;;;2.70;;
48941;SDS011;35340;52.378;4.648;2022-09-09T19:21:48;7.20;;;2.60;;
48941;SDS011;35340;52.378;4.648;2022-09-09T19:26:40;5.45;;;2.70;;
48941;SDS011;35340;52.378;4.648;2022-09-09T19:31:41;4.10;;;2.33;;
48941;SDS011;35340;52.378;4.648;2022-09-09T19:34:07;7.13;;;2.60;;
48941;SDS011;35340;52.378;4.648;2022-09-09T19:36:33;6.18;;;2.80;;
48941;SDS011;35340;52.378;4.648;2022-09-09T19:38:59;5.40;;;2.53;;
48941;SDS011;35340;52.378;4.648;2022-09-09T19:41:26;5.50;;;2.95;;
48941;SDS011;35340;52.378;4.648;2022-09-09T19:43:54;4.93;;;2.63;;
48941;SDS011;35340;52.378;4.648;2022-09-09T19:46:27;8.63;;;2.70;;
48941;SDS011;35340;52.378;4.648;2022-09-09T19:48:54;5.20;;;2.20;;
48941;SDS011;35340;52.378;4.648;2022-09-09T19:51:21;4.97;;;2.40;;
48941;SDS011;35340;52.378;4.648;2022-09-09T19:53:54;4.38;;;2.03;;
48941;SDS011;35340;52.378;4.648;2022-09-09T19:56:23;5.70;;;2.50;;
48941;SDS011;35340;52.378;4.648;2022-09-09T19:58:52;7.85;;;2.38;;
48941;SDS011;35340;52.378;4.648;2022-09-09T20:01:22;4.32;;;1.88;;
48941;SDS011;35340;52.378;4.648;2022-09-09T20:03:50;5.07;;;2.30;;
48941;SDS011;35340;52.378;4.648;2022-09-09T20:06:19;5.20;;;2.13;;
48941;SDS011;35340;52.378;4.648;2022-09-09T20:08:47;6.25;;;2.40;;
48941;SDS011;35340;52.378;4.648;2022-09-09T20:11:13;6.25;;;2.58;;
48941;SDS011;35340;52.378;4.648;2022-09-09T20:13:39;5.63;;;2.28;;
48941;SDS011;35340;52.378;4.648;2022-09-09T20:16:05;4.93;;;2.20;;
48941;SDS011;35340;52.378;4.648;2022-09-09T20:18:40;6.60;;;2.60;;
48941;SDS011;35340;52.378;4.648;2022-09-09T20:21:09;3.95;;;2.00;;
48941;SDS011;35340;52.378;4.648;2022-09-09T20:23:36;4.65;;;2.03;;
48941;SDS011;35340;52.378;4.648;2022-09-09T20:26:03;5.97;;;2.10;;
48941;SDS011;35340;52.378;4.648;2022-09-09T20:28:33;6.15;;;2.10;;
48941;SDS011;35340;52.378;4.648;2022-09-09T20:31:03;5.93;;;2.08;;
48941;SDS011;35340;52.378;4.648;2022-09-09T20:33:30;6.22;;;2.10;;
48941;SDS011;35340;52.378;4.648;2022-09-09T20:35:56;6.90;;;1.90;;
48941;SDS011;35340;52.378;4.648;2022-09-09T20:38:23;5.32;;;1.92;;
48941;SDS011;35340;52.378;4.648;2022-09-09T20:40:49;5.25;;;1.70;;
48941;SDS011;35340;52.378;4.648;2022-09-09T20:43:15;4.53;;;1.50;;
48941;SDS011;35340;52.378;4.648;2022-09-09T20:45:40;4.50;;;1.80;;
48941;SDS011;35340;52.378;4.648;2022-09-09T20:48:07;4.93;;;1.88;;
48941;SDS011;35340;52.378;4.648;2022-09-09T20:50:34;5.85;;;1.50;;
48941;SDS011;35340;52.378;4.648;2022-09-09T20:53:01;3.40;;;1.85;;
48941;SDS011;35340;52.378;4.648;2022-09-09T20:55:29;4.35;;;1.73;;
48941;SDS011;35340;52.378;4.648;2022-09-09T20:57:55;3.97;;;1.60;;
48941;SDS011;35340;52.378;4.648;2022-09-09T21:00:22;5.05;;;1.67;;
48941;SDS011;35340;52.378;4.648;2022-09-09T21:02:48;3.00;;;1.50;;
48941;SDS011;35340;52.378;4.648;2022-09-09T21:05:14;3.58;;;1.45;;
48941;SDS011;35340;52.378;4.648;2022-09-09T21:07:40;4.65;;;1.70;;
48941;SDS011;35340;52.378;4.648;2022-09-09T21:10:05;3.47;;;1.58;;
48941;SDS011;35340;52.378;4.648;2022-09-09T21:12:32;2.78;;;1.27;;
48941;SDS011;35340;52.378;4.648;2022-09-09T21:14:57;2.28;;;1.48;;
48941;SDS011;35340;52.378;4.648;2022-09-09T21:17:22;2.78;;;1.30;;
48941;SDS011;35340;52.378;4.648;2022-09-09T21:19:48;2.92;;;1.40;;
48941;SDS011;35340;52.378;4.648;2022-09-09T22:14:04;2.90;;;1.73;;
48941;SDS011;35340;52.378;4.648;2022-09-09T22:16:30;2.25;;;1.42;;
48941;SDS011;35340;52.378;4.648;2022-09-09T23:00:18;2.83;;;1.90;;
48941;SDS011;35340;52.378;4.648;2022-09-09T23:02:44;6.00;;;1.85;;
48941;SDS011;35340;52.378;4.648;2022-09-09T23:05:13;3.47;;;1.80;;
48941;SDS011;35340;52.378;4.648;2022-09-09T23:07:38;5.82;;;1.80;;
48941;SDS011;35340;52.378;4.648;2022-09-09T23:10:04;3.40;;;1.80;;
48941;SDS011;35340;52.378;4.648;2022-09-09T23:12:30;5.07;;;1.95;;
